Terminal Aerodrome Forecast
Issued by NWS

Home | Current Version | Previous Version | Text Only | Print | Product List | Glossary On
Versions: 1 2 3 4 5 6 7 8 9 10 11 12 13 14 15 16 17 18 19 20 21 22 23 24 25
119
FTUS46 KMFR 262352
TAFRBG
TAF
KRBG 262352Z 2700/2724 22008KT P6SM -SHRA SCT015 BKN025 OVC035
     FM270900 VRB03KT 5SM -SHRASN SCT010 OVC020
     FM271500 16003KT P6SM OVC007=

USA.gov is the U.S. government's official web portal to all federal, state and local government web resources and services.